Time;durP1;ratioP1;P1;durP2;ratioP2;P2;SDS_P1;SDS_P2;PMS_P1;PMS_P2;Temp;Humidity;BMP_temperature;BMP_pressure;BME280_temperature;BME280_humidity;BME280_pressure;Samples;Min_cycle;Max_cycle;Signal;HPM_P1;HPM_P2
2022/10/14 00:00:01;;;;;;;14.48;12.43;;;23.50;49.10;;;;;;4969414;28;20051;-60
2022/10/14 00:02:27;;;;;;;15.68;12.82;;;23.50;49.10;;;;;;4970850;28;20047;-60
2022/10/14 00:04:55;;;;;;;15.35;12.50;;;23.50;49.10;;;;;;4972422;28;20459;-60
2022/10/14 00:07:22;;;;;;;15.35;12.85;;;23.50;49.10;;;;;;4972323;28;20055;-60
2022/10/14 00:09:49;;;;;;;14.00;11.93;;;23.50;49.10;;;;;;4972720;28;20466;-60
2022/10/14 00:12:16;;;;;;;15.90;12.73;;;23.40;49.10;;;;;;4968512;28;20062;-60
2022/10/14 00:14:43;;;;;;;14.48;11.85;;;23.40;49.00;;;;;;4972400;28;20076;-60
2022/10/14 00:17:10;;;;;;;15.70;11.25;;;23.50;49.10;;;;;;4971653;28;20055;-60
2022/10/14 00:19:37;;;;;;;15.50;12.55;;;23.50;49.10;;;;;;4972638;28;20102;-60
2022/10/14 00:22:04;;;;;;;15.65;12.07;;;23.50;49.10;;;;;;4973269;28;20058;-60
2022/10/14 00:24:32;;;;;;;15.80;12.68;;;23.40;49.10;;;;;;4970639;28;20480;-60
2022/10/14 00:26:59;;;;;;;17.33;12.55;;;23.50;49.10;;;;;;4972090;28;20065;-60
2022/10/14 00:29:26;;;;;;;14.85;12.50;;;23.40;49.00;;;;;;4972481;28;20046;-61
2022/10/14 00:31:53;;;;;;;15.20;12.52;;;23.40;49.00;;;;;;4972170;28;20050;-60
2022/10/14 00:34:20;;;;;;;13.63;11.57;;;23.40;49.00;;;;;;4972517;28;20407;-60
2022/10/14 00:36:47;;;;;;;15.73;12.20;;;23.40;49.00;;;;;;4972642;28;20053;-60
2022/10/14 00:39:15;;;;;;;14.10;11.90;;;23.40;49.00;;;;;;4972038;28;20058;-60
2022/10/14 00:41:43;;;;;;;15.43;11.40;;;23.40;49.00;;;;;;4972033;28;20043;-60
2022/10/14 00:44:40;;;;;;;16.42;12.52;;;23.40;49.00;;;;;;4968760;28;20125;-60
2022/10/14 00:47:07;;;;;;;16.42;12.35;;;23.40;49.00;;;;;;4971641;28;20238;-60
2022/10/14 00:49:39;;;;;;;14.65;11.80;;;23.40;49.00;;;;;;4971760;28;20495;-60
2022/10/14 00:52:16;;;;;;;15.60;12.10;;;23.40;49.00;;;;;;4972085;28;20055;-60
2022/10/14 00:55:04;;;;;;;16.35;12.45;;;23.40;49.00;;;;;;4972270;28;20133;-60
2022/10/14 00:57:32;;;;;;;14.07;11.90;;;23.40;49.00;;;;;;4972104;28;20058;-60
2022/10/14 01:00:04;;;;;;;14.13;12.05;;;23.40;49.00;;;;;;4972027;28;20058;-60
2022/10/14 01:02:31;;;;;;;16.20;12.38;;;23.40;49.00;;;;;;4970573;28;20078;-61
2022/10/14 01:05:00;;;;;;;13.65;11.43;;;23.40;49.10;;;;;;4971531;28;20059;-60
2022/10/14 01:07:52;;;;;;;13.85;11.00;;;23.40;49.00;;;;;;4971269;28;20050;-60
2022/10/14 01:10:58;;;;;;;13.65;10.88;;;23.40;49.00;;;;;;4971970;28;20043;-60
2022/10/14 01:13:32;;;;;;;15.18;11.38;;;23.40;48.90;;;;;;4971129;28;20571;-60
2022/10/14 01:16:28;;;;;;;15.52;11.25;;;23.40;48.80;;;;;;4966989;28;20047;-60
2022/10/14 01:19:27;;;;;;;13.30;11.32;;;23.40;48.80;;;;;;4971625;28;20689;-60
2022/10/14 01:22:03;;;;;;;14.05;11.50;;;23.40;48.80;;;;;;4971407;28;20376;-60
2022/10/14 01:24:59;;;;;;;15.75;11.77;;;23.40;48.80;;;;;;4972072;28;20065;-61
2022/10/14 01:27:52;;;;;;;14.32;11.45;;;23.30;48.70;;;;;;4971648;28;20055;-60
2022/10/14 01:30:24;;;;;;;15.95;12.27;;;23.30;48.80;;;;;;4971356;28;20058;-60
2022/10/14 01:33:06;;;;;;;13.35;11.00;;;23.30;48.70;;;;;;4970359;28;20047;-60
2022/10/14 01:35:42;;;;;;;13.93;11.15;;;23.30;48.70;;;;;;4971098;28;20467;-60
2022/10/14 01:38:31;;;;;;;15.75;11.50;;;23.40;48.80;;;;;;4970360;28;20259;-60
2022/10/14 01:41:08;;;;;;;14.63;11.13;;;23.40;48.80;;;;;;4970903;28;20051;-60
2022/10/14 01:43:38;;;;;;;15.05;11.13;;;23.30;48.70;;;;;;4966900;28;20106;-62
2022/10/14 01:46:07;;;;;;;13.75;11.40;;;23.40;48.80;;;;;;4951587;28;20047;-60
2022/10/14 01:48:39;;;;;;;14.30;11.23;;;23.30;48.70;;;;;;4947589;28;20055;-60
2022/10/14 01:51:19;;;;;;;15.20;11.73;;;23.40;48.80;;;;;;4951366;28;20059;-60
2022/10/14 01:53:55;;;;;;;11.60;10.40;;;23.30;48.80;;;;;;4951661;28;20055;-60
2022/10/14 01:56:23;;;;;;;14.48;11.82;;;23.30;48.70;;;;;;4951486;28;20055;-60
2022/10/14 01:58:51;;;;;;;14.43;11.38;;;23.30;48.70;;;;;;4952200;28;20073;-60
2022/10/14 02:01:19;;;;;;;14.02;10.55;;;23.30;48.70;;;;;;4951156;28;21518;-60
2022/10/14 02:03:46;;;;;;;13.18;10.82;;;23.30;48.70;;;;;;4951229;28;20134;-60
2022/10/14 02:06:32;;;;;;;12.88;10.65;;;23.30;48.70;;;;;;4950326;29;20086;-60
2022/10/14 02:09:15;;;;;;;15.52;11.32;;;23.30;48.70;;;;;;4950992;28;20052;-60
2022/10/14 02:12:12;;;;;;;13.18;10.75;;;23.30;48.70;;;;;;4951733;28;20051;-61
2022/10/14 02:15:14;;;;;;;12.57;10.38;;;23.30;48.60;;;;;;4950984;28;20054;-60
2022/10/14 02:17:56;;;;;;;11.00;9.80;;;23.30;48.60;;;;;;4951426;28;20051;-60
2022/10/14 02:20:30;;;;;;;13.32;10.55;;;23.30;48.70;;;;;;4946337;28;20051;-60
2022/10/14 02:23:03;;;;;;;12.70;10.68;;;23.30;48.70;;;;;;4951576;28;20062;-60
2022/10/14 02:25:34;;;;;;;13.73;10.52;;;23.30;48.80;;;;;;4950111;28;20051;-60
2022/10/14 02:28:06;;;;;;;13.05;10.43;;;23.30;48.70;;;;;;4950915;28;20612;-60
2022/10/14 02:30:40;;;;;;;12.38;10.00;;;23.30;48.70;;;;;;4951324;28;20047;-60
2022/10/14 02:33:08;;;;;;;13.20;10.55;;;23.30;48.70;;;;;;4949663;29;20051;-60
2022/10/14 02:35:37;;;;;;;12.50;10.52;;;23.30;48.70;;;;;;4950382;28;20348;-60
2022/10/14 02:38:06;;;;;;;12.50;10.20;;;23.30;48.70;;;;;;4951345;28;20070;-60
2022/10/14 02:40:42;;;;;;;11.77;10.18;;;23.30;48.60;;;;;;4950830;28;20043;-60
2022/10/14 02:43:10;;;;;;;13.32;10.35;;;23.30;48.50;;;;;;4949548;29;20061;-60
2022/10/14 02:45:39;;;;;;;13.05;10.77;;;23.30;48.40;;;;;;4956782;28;20050;-60
2022/10/14 02:48:07;;;;;;;11.18;9.93;;;23.30;48.40;;;;;;4970670;28;20529;-60
2022/10/14 02:50:34;;;;;;;13.43;10.45;;;23.30;48.40;;;;;;4969619;28;20487;-60
2022/10/14 02:53:02;;;;;;;14.27;10.85;;;23.30;48.40;;;;;;4965268;28;20129;-61
2022/10/14 02:55:29;;;;;;;11.73;9.45;;;23.30;48.30;;;;;;4970439;28;20046;-60
2022/10/14 02:57:56;;;;;;;13.38;9.93;;;23.30;48.30;;;;;;4970172;28;20146;-61
2022/10/14 03:00:23;;;;;;;15.70;11.07;;;23.30;48.30;;;;;;4984739;28;20051;-60
2022/10/14 03:02:50;;;;;;;11.75;9.98;;;23.30;48.30;;;;;;4969605;28;20057;-60
2022/10/14 03:05:17;;;;;;;11.65;10.27;;;23.30;48.30;;;;;;4970120;28;20050;-60
2022/10/14 03:07:44;;;;;;;13.85;10.55;;;23.30;48.30;;;;;;4970032;28;20062;-60
2022/10/14 03:10:11;;;;;;;12.15;10.00;;;23.30;48.30;;;;;;4969607;28;20057;-60
2022/10/14 03:12:38;;;;;;;11.20;9.98;;;23.30;48.40;;;;;;4969871;28;20047;-60
2022/10/14 03:15:06;;;;;;;10.18;9.00;;;23.20;48.30;;;;;;4969607;28;20053;-60
2022/10/14 03:17:33;;;;;;;12.90;9.48;;;23.20;48.30;;;;;;4970052;28;20097;-60
2022/10/14 03:20:01;;;;;;;12.95;9.43;;;23.20;48.30;;;;;;4969506;28;20066;-60
2022/10/14 03:22:28;;;;;;;11.68;9.27;;;23.30;48.30;;;;;;4969334;28;20058;-60
2022/10/14 03:24:55;;;;;;;12.32;10.15;;;23.20;48.20;;;;;;4965008;28;20490;-60
2022/10/14 03:27:22;;;;;;;12.93;9.93;;;23.20;48.30;;;;;;4969390;28;20254;-60
2022/10/14 03:29:50;;;;;;;10.32;8.63;;;23.30;48.30;;;;;;4969668;28;20162;-60
2022/10/14 03:32:17;;;;;;;11.25;9.30;;;23.20;48.30;;;;;;4968261;28;20058;-60
2022/10/14 03:34:44;;;;;;;12.02;9.23;;;23.20;48.20;;;;;;4969221;28;20043;-60
2022/10/14 03:37:11;;;;;;;12.13;9.18;;;23.20;48.20;;;;;;4973128;28;20046;-60
2022/10/14 03:39:38;;;;;;;13.75;9.95;;;23.20;48.20;;;;;;4973076;28;20043;-60
2022/10/14 03:42:05;;;;;;;12.73;9.57;;;23.20;48.20;;;;;;4973415;28;20047;-60
2022/10/14 03:44:32;;;;;;;12.15;9.68;;;23.20;48.20;;;;;;4972084;28;20138;-60
2022/10/14 03:47:00;;;;;;;10.10;8.85;;;23.20;48.20;;;;;;4973335;28;20101;-61
2022/10/14 03:49:27;;;;;;;10.93;9.35;;;23.20;48.20;;;;;;4973498;28;20410;-60
2022/10/14 03:51:54;;;;;;;10.50;8.93;;;23.20;48.20;;;;;;4972823;28;20047;-60
2022/10/14 03:54:21;;;;;;;13.88;9.90;;;23.20;48.20;;;;;;4973170;28;20042;-61
2022/10/14 03:56:49;;;;;;;13.43;9.95;;;23.20;48.20;;;;;;4968514;28;20055;-60
2022/10/14 03:59:16;;;;;;;11.85;9.30;;;23.20;48.20;;;;;;4970576;28;20046;-60
2022/10/14 04:01:43;;;;;;;10.93;9.40;;;23.20;48.20;;;;;;4969633;28;20046;-60
2022/10/14 04:04:10;;;;;;;10.60;9.07;;;23.20;48.20;;;;;;4967752;28;20054;-60
2022/10/14 04:06:37;;;;;;;11.45;9.05;;;23.20;48.20;;;;;;4972410;28;20049;-60
2022/10/14 04:09:04;;;;;;;10.32;9.15;;;23.20;48.20;;;;;;4972873;28;20058;-60
2022/10/14 04:11:31;;;;;;;12.60;9.43;;;23.20;48.20;;;;;;4972227;28;20057;-60
2022/10/14 04:13:59;;;;;;;10.68;9.32;;;23.20;48.00;;;;;;4972039;28;20142;-60
2022/10/14 04:16:26;;;;;;;9.90;8.68;;;23.20;48.00;;;;;;4972353;28;20054;-60
2022/10/14 04:18:53;;;;;;;10.43;8.68;;;23.20;48.00;;;;;;4973338;28;20046;-60
2022/10/14 04:21:20;;;;;;;11.68;8.88;;;23.20;47.90;;;;;;4972521;28;20423;-60
2022/10/14 04:23:49;;;;;;;12.85;9.57;;;23.30;48.00;;;;;;4973013;28;20504;-60
2022/10/14 04:26:16;;;;;;;10.85;9.13;;;23.20;47.90;;;;;;4971829;28;20046;-60
2022/10/14 04:28:43;;;;;;;10.63;8.43;;;23.20;47.90;;;;;;4967322;28;20050;-60
2022/10/14 04:31:10;;;;;;;12.15;8.93;;;23.20;47.90;;;;;;4972694;28;20283;-60
2022/10/14 04:33:37;;;;;;;10.05;8.70;;;23.20;47.90;;;;;;4971832;28;20062;-60
2022/10/14 04:36:05;;;;;;;11.55;9.13;;;23.20;47.90;;;;;;4972351;28;20043;-61
2022/10/14 04:38:33;;;;;;;10.82;8.43;;;23.20;47.70;;;;;;4972004;28;20051;-60
2022/10/14 04:41:00;;;;;;;12.63;8.80;;;23.20;47.60;;;;;;4972240;28;20495;-60
2022/10/14 04:43:27;;;;;;;11.38;8.55;;;23.20;47.50;;;;;;4971722;28;20506;-60
2022/10/14 04:45:54;;;;;;;12.18;9.30;;;23.20;47.50;;;;;;4971737;28;20597;-60
2022/10/14 04:48:21;;;;;;;11.80;9.45;;;23.10;47.40;;;;;;4971536;28;20053;-60
2022/10/14 04:50:52;;;;;;;9.23;8.25;;;23.20;47.40;;;;;;4971792;28;20072;-60
2022/10/14 04:53:20;;;;;;;10.43;8.43;;;23.20;47.50;;;;;;4972053;28;20050;-60
2022/10/14 04:55:48;;;;;;;11.18;8.18;;;23.10;47.50;;;;;;4971814;28;20042;-60
2022/10/14 04:58:16;;;;;;;16.70;9.48;;;23.10;47.50;;;;;;4971613;28;20050;-60
2022/10/14 05:00:43;;;;;;;12.25;8.32;;;23.10;47.50;;;;;;4967174;28;20082;-60
2022/10/14 05:03:10;;;;;;;11.82;8.63;;;23.10;47.50;;;;;;4960002;28;20054;-61
2022/10/14 05:05:37;;;;;;;13.10;8.75;;;23.10;47.40;;;;;;4958255;28;20062;-60
2022/10/14 05:08:05;;;;;;;10.70;9.25;;;23.10;47.40;;;;;;4964816;28;20428;-60
2022/10/14 05:10:32;;;;;;;10.55;8.45;;;23.00;47.80;;;;;;4971347;28;20050;-60
2022/10/14 05:12:59;;;;;;;11.07;8.70;;;23.00;47.30;;;;;;4970968;28;20070;-60
2022/10/14 05:15:26;;;;;;;11.38;9.02;;;23.00;47.60;;;;;;4969675;28;20551;-60
2022/10/14 05:17:54;;;;;;;11.45;8.45;;;23.00;47.20;;;;;;4963959;28;20392;-59
2022/10/14 05:20:21;;;;;;;11.80;8.82;;;23.00;47.10;;;;;;4973945;28;20049;-60
2022/10/14 05:22:48;;;;;;;13.00;9.27;;;23.00;47.30;;;;;;4969843;28;20051;-59
2022/10/14 05:25:15;;;;;;;12.50;9.48;;;23.00;47.40;;;;;;4967312;28;20047;-59
2022/10/14 05:27:42;;;;;;;10.10;8.10;;;23.00;47.50;;;;;;4972559;28;20054;-60
2022/10/14 05:30:11;;;;;;;11.52;7.97;;;23.00;47.50;;;;;;4963935;28;20159;-60
2022/10/14 05:32:39;;;;;;;12.70;8.45;;;23.10;47.60;;;;;;4963642;28;20419;-60
2022/10/14 05:35:07;;;;;;;10.30;8.98;;;23.10;47.60;;;;;;4965721;28;20051;-62
2022/10/14 05:37:34;;;;;;;11.88;8.45;;;23.10;47.70;;;;;;4966155;28;20050;-61
2022/10/14 05:40:01;;;;;;;9.70;8.23;;;23.10;47.70;;;;;;4967630;28;20053;-62
2022/10/14 05:42:29;;;;;;;12.32;9.07;;;23.10;47.80;;;;;;4968966;28;20050;-62
2022/10/14 05:44:56;;;;;;;12.07;8.90;;;23.10;47.80;;;;;;4960663;28;20047;-62
2022/10/14 05:47:23;;;;;;;12.48;9.52;;;23.20;47.70;;;;;;4963010;28;20059;-62
2022/10/14 05:49:50;;;;;;;11.20;8.57;;;23.10;47.50;;;;;;4961820;28;20055;-62
2022/10/14 05:52:17;;;;;;;9.00;8.05;;;23.10;47.30;;;;;;4964195;28;20480;-62
2022/10/14 05:54:46;;;;;;;11.23;8.48;;;23.10;47.20;;;;;;4961937;28;20134;-63
2022/10/14 05:57:13;;;;;;;11.35;8.88;;;23.10;47.10;;;;;;4969800;28;20492;-62
2022/10/14 05:59:40;;;;;;;11.77;8.32;;;23.10;47.00;;;;;;4964713;28;20062;-60
2022/10/14 06:02:08;;;;;;;14.38;9.40;;;23.20;47.00;;;;;;4966017;28;20042;-62
2022/10/14 06:04:39;;;;;;;15.95;8.93;;;23.10;46.90;;;;;;4962914;28;20051;-62
2022/10/14 06:07:09;;;;;;;14.35;9.85;;;23.20;47.00;;;;;;4958504;28;20129;-59
2022/10/14 06:09:37;;;;;;;12.65;9.43;;;23.20;47.30;;;;;;4964980;28;20454;-61
2022/10/14 06:12:05;;;;;;;11.00;8.75;;;23.20;47.40;;;;;;4964207;28;20059;-61
2022/10/14 06:14:32;;;;;;;14.15;10.23;;;23.20;47.70;;;;;;4963729;28;20395;-61
2022/10/14 06:16:59;;;;;;;13.55;9.07;;;23.30;47.90;;;;;;4960292;28;20738;-62
2022/10/14 06:19:26;;;;;;;14.95;9.63;;;23.30;47.90;;;;;;4961476;28;20491;-61
2022/10/14 06:21:54;;;;;;;10.90;8.93;;;23.30;47.80;;;;;;4959388;28;20562;-60
2022/10/14 06:24:21;;;;;;;12.15;8.93;;;23.30;47.60;;;;;;4958577;28;20487;-61
2022/10/14 06:26:48;;;;;;;12.73;8.15;;;23.40;47.70;;;;;;4956838;28;20055;-59
2022/10/14 06:29:16;;;;;;;11.82;8.52;;;23.40;47.70;;;;;;4955842;28;20058;-59
2022/10/14 06:31:43;;;;;;;11.80;8.15;;;23.40;47.60;;;;;;4958404;28;20039;-60
2022/10/14 06:34:10;;;;;;;11.55;8.60;;;23.40;47.60;;;;;;4962269;28;20090;-59
2022/10/14 06:36:37;;;;;;;13.00;9.05;;;23.40;47.60;;;;;;4960593;28;20053;-60
2022/10/14 06:39:04;;;;;;;15.25;9.50;;;23.50;47.50;;;;;;4958113;28;20061;-62
2022/10/14 06:41:32;;;;;;;13.07;9.18;;;23.50;47.50;;;;;;4966094;28;20572;-62
2022/10/14 06:43:59;;;;;;;11.57;8.98;;;23.50;47.50;;;;;;4963600;28;20141;-62
2022/10/14 06:46:26;;;;;;;12.55;9.55;;;23.60;47.50;;;;;;4960149;28;20047;-64
2022/10/14 06:48:53;;;;;;;13.63;9.23;;;23.60;47.30;;;;;;4962227;28;20073;-61
2022/10/14 06:51:20;;;;;;;12.43;9.38;;;23.60;47.10;;;;;;4959271;28;20050;-62
2022/10/14 06:53:48;;;;;;;12.35;9.27;;;23.60;47.10;;;;;;4960821;28;20376;-61
2022/10/14 06:56:15;;;;;;;17.13;9.60;;;23.70;47.10;;;;;;4962596;28;20042;-62
2022/10/14 06:58:42;;;;;;;13.20;9.57;;;23.70;47.10;;;;;;4967513;28;20054;-60
2022/10/14 07:01:10;;;;;;;12.57;9.63;;;23.70;47.00;;;;;;4957352;28;20455;-61
2022/10/14 07:03:38;;;;;;;12.30;9.82;;;23.70;47.00;;;;;;4963824;28;20109;-61
2022/10/14 07:06:07;;;;;;;13.52;8.98;;;23.80;47.00;;;;;;4957968;28;20141;-60
2022/10/14 07:08:34;;;;;;;13.05;8.52;;;23.80;47.00;;;;;;4961223;28;20060;-61
2022/10/14 07:11:02;;;;;;;14.57;9.82;;;23.80;47.00;;;;;;4954983;28;20132;-61
2022/10/14 07:13:29;;;;;;;14.13;9.48;;;23.90;47.00;;;;;;4956404;28;20050;-61
2022/10/14 07:15:56;;;;;;;10.30;9.10;;;23.90;47.00;;;;;;4957609;28;20055;-61
2022/10/14 07:18:24;;;;;;;12.43;9.88;;;23.90;46.90;;;;;;4960787;28;20494;-61
2022/10/14 07:20:51;;;;;;;11.48;8.40;;;23.90;46.90;;;;;;4961132;28;20058;-61
2022/10/14 07:23:18;;;;;;;12.07;9.07;;;23.90;46.80;;;;;;4960295;28;20446;-62
2022/10/14 07:25:45;;;;;;;11.93;9.48;;;24.00;46.90;;;;;;4956647;28;20055;-61
2022/10/14 07:28:12;;;;;;;13.65;9.57;;;24.00;46.80;;;;;;4960470;28;20059;-61
2022/10/14 07:30:40;;;;;;;12.45;9.32;;;24.00;46.70;;;;;;4960044;28;20499;-63
2022/10/14 07:33:07;;;;;;;12.10;9.38;;;24.10;46.70;;;;;;4956747;28;20058;-62
2022/10/14 07:35:37;;;;;;;13.55;9.55;;;24.10;46.70;;;;;;4960064;28;20058;-62
2022/10/14 07:38:04;;;;;;;13.63;8.73;;;24.10;46.50;;;;;;4979712;28;20054;-62
2022/10/14 07:40:31;;;;;;;13.00;8.98;;;24.10;46.50;;;;;;4968528;28;20054;-62
2022/10/14 07:42:58;;;;;;;22.80;8.13;;;24.20;46.50;;;;;;4957860;28;20047;-63
2022/10/14 07:45:25;;;;;;;10.15;8.45;;;24.20;46.40;;;;;;4969551;28;20046;-61
2022/10/14 07:47:52;;;;;;;13.43;8.38;;;24.20;46.30;;;;;;4960079;28;20043;-60
2022/10/14 07:50:20;;;;;;;9.70;7.85;;;24.20;46.30;;;;;;4967191;28;20050;-60
2022/10/14 07:52:47;;;;;;;10.93;8.48;;;24.30;46.30;;;;;;4961596;28;20129;-61
2022/10/14 07:55:14;;;;;;;10.27;8.55;;;24.30;46.20;;;;;;4964974;28;20055;-61
2022/10/14 07:57:42;;;;;;;11.75;8.63;;;24.30;46.20;;;;;;4960070;28;20051;-60
2022/10/14 08:00:09;;;;;;;13.07;8.18;;;24.30;46.10;;;;;;4958275;28;20051;-60
2022/10/14 08:02:37;;;;;;;10.23;7.90;;;24.30;46.10;;;;;;4957351;28;20077;-61
2022/10/14 08:05:04;;;;;;;11.10;9.00;;;24.30;46.10;;;;;;4963538;28;20050;-61
2022/10/14 08:07:51;;;;;;;11.95;8.30;;;24.40;46.00;;;;;;4957473;28;20553;-61
2022/10/14 08:10:18;;;;;;;10.73;7.65;;;24.40;46.00;;;;;;4957817;28;20051;-60
2022/10/14 08:12:45;;;;;;;11.65;8.00;;;24.40;45.90;;;;;;4959266;28;20053;-63
2022/10/14 08:15:12;;;;;;;10.10;7.97;;;24.40;45.80;;;;;;4951890;28;20054;-60
2022/10/14 08:17:39;;;;;;;12.18;8.38;;;24.50;45.80;;;;;;4960345;28;20054;-60
2022/10/14 08:20:07;;;;;;;9.75;7.45;;;24.50;45.80;;;;;;4960352;28;20046;-58
2022/10/14 08:22:34;;;;;;;11.25;8.13;;;24.50;45.70;;;;;;4958010;28;20491;-59
2022/10/14 08:25:01;;;;;;;10.00;7.78;;;24.50;45.60;;;;;;4963244;28;20047;-58
2022/10/14 08:27:28;;;;;;;10.05;7.97;;;24.60;45.60;;;;;;4962246;28;20055;-61
2022/10/14 08:29:55;;;;;;;10.07;7.20;;;24.60;45.60;;;;;;4968902;28;20050;-60
2022/10/14 08:32:22;;;;;;;9.20;6.78;;;24.60;45.40;;;;;;4968241;28;20051;-60
2022/10/14 08:34:50;;;;;;;8.60;7.20;;;24.60;45.30;;;;;;4962863;28;20066;-60
2022/10/14 08:37:17;;;;;;;12.43;8.13;;;24.70;45.20;;;;;;4963290;28;20039;-60
2022/10/14 08:39:44;;;;;;;8.98;7.50;;;24.70;45.20;;;;;;4967419;28;20051;-60
2022/10/14 08:42:42;;;;;;;15.38;7.75;;;24.70;45.10;;;;;;4963533;28;20134;-60
2022/10/14 08:45:17;;;;;;;13.65;8.68;;;24.70;45.10;;;;;;4963855;28;20051;-60
2022/10/14 08:47:46;;;;;;;8.23;6.82;;;24.70;45.20;;;;;;4953463;28;20051;-60
2022/10/14 08:50:36;;;;;;;10.38;7.35;;;24.80;45.30;;;;;;4960566;28;20065;-59
2022/10/14 08:53:15;;;;;;;12.27;7.55;;;24.80;45.30;;;;;;4958331;28;20051;-59
2022/10/14 08:55:51;;;;;;;10.40;7.65;;;24.80;45.30;;;;;;4960102;28;20077;-60
2022/10/14 08:58:30;;;;;;;12.05;7.38;;;24.80;45.30;;;;;;4961361;28;20051;-61
2022/10/14 09:01:03;;;;;;;13.18;8.48;;;24.80;45.40;;;;;;4964209;28;20078;-61
2022/10/14 09:03:37;;;;;;;9.93;7.50;;;24.80;45.30;;;;;;4964565;28;20129;-60
2022/10/14 09:06:09;;;;;;;9.70;7.43;;;24.90;45.30;;;;;;4962218;28;20118;-60
2022/10/14 09:08:41;;;;;;;10.35;7.63;;;24.90;45.40;;;;;;4961069;28;20596;-60
2022/10/14 09:11:21;;;;;;;12.65;8.88;;;24.90;45.30;;;;;;4958991;28;20488;-60
2022/10/14 09:13:56;;;;;;;9.05;6.93;;;24.90;45.30;;;;;;4972802;28;20046;-60
2022/10/14 09:16:30;;;;;;;14.98;7.57;;;24.90;45.30;;;;;;4964922;28;20054;-60
2022/10/14 09:19:11;;;;;;;13.05;8.35;;;24.90;45.30;;;;;;4966661;28;20050;-59
2022/10/14 09:21:48;;;;;;;12.23;7.85;;;24.90;45.30;;;;;;4955444;28;20047;-59
2022/10/14 09:24:34;;;;;;;13.50;8.75;;;24.90;45.30;;;;;;4969184;28;20054;-60
2022/10/14 09:27:15;;;;;;;11.57;7.90;;;25.00;45.30;;;;;;4962850;28;20047;-59
2022/10/14 09:29:56;;;;;;;11.80;7.72;;;25.00;45.30;;;;;;4957988;28;20078;-59
2022/10/14 09:32:34;;;;;;;9.68;8.10;;;25.00;45.40;;;;;;4962670;28;20043;-61
2022/10/14 09:35:03;;;;;;;10.40;7.25;;;25.00;45.30;;;;;;4964322;28;20598;-60
2022/10/14 09:37:36;;;;;;;13.43;8.20;;;25.00;45.30;;;;;;4958756;28;20054;-59
2022/10/14 09:40:25;;;;;;;11.65;8.75;;;25.10;45.50;;;;;;4958845;28;20506;-60
2022/10/14 09:43:14;;;;;;;8.32;6.97;;;25.00;45.50;;;;;;4963292;28;20047;-61
2022/10/14 09:46:06;;;;;;;8.57;7.53;;;25.10;45.50;;;;;;4959925;28;20061;-60
2022/10/14 09:48:43;;;;;;;11.40;8.07;;;25.10;45.50;;;;;;4958874;28;20062;-60
2022/10/14 09:51:28;;;;;;;10.93;7.80;;;25.10;45.50;;;;;;4959308;28;20170;-60
2022/10/14 09:53:58;;;;;;;11.23;7.63;;;25.10;46.00;;;;;;4963787;28;20047;-60
2022/10/14 09:56:35;;;;;;;8.77;7.43;;;25.10;45.50;;;;;;4961538;28;20047;-60
2022/10/14 09:59:21;;;;;;;11.75;7.35;;;25.10;45.50;;;;;;4962227;28;20085;-61
2022/10/14 10:01:52;;;;;;;9.20;7.40;;;25.10;45.50;;;;;;4959798;28;20047;-61
2022/10/14 10:04:46;;;;;;;12.77;7.65;;;25.10;45.40;;;;;;4956604;28;20395;-61
2022/10/14 10:07:32;;;;;;;11.38;8.15;;;25.20;45.50;;;;;;4966478;28;20469;-60
2022/10/14 10:10:17;;;;;;;9.57;7.75;;;25.30;45.50;;;;;;4966609;28;20053;-61
2022/10/14 10:12:46;;;;;;;9.05;7.10;;;25.20;45.40;;;;;;4965914;28;20078;-60
2022/10/14 10:15:20;;;;;;;9.32;7.15;;;25.30;45.40;;;;;;4962802;28;20046;-61
2022/10/14 10:17:47;;;;;;;8.15;6.53;;;25.30;45.40;;;;;;4977701;28;20039;-61
2022/10/14 10:20:32;;;;;;;8.13;6.93;;;25.30;45.40;;;;;;4965317;28;20038;-61
2022/10/14 10:23:24;;;;;;;11.07;8.25;;;25.40;45.50;;;;;;4963161;28;20051;-61
2022/10/14 10:25:52;;;;;;;7.97;6.80;;;25.40;45.40;;;;;;4960376;28;20047;-61
2022/10/14 10:28:30;;;;;;;8.45;7.25;;;25.40;45.50;;;;;;4961347;28;20046;-61
2022/10/14 10:31:31;;;;;;;11.15;8.93;;;25.40;46.00;;;;;;4965453;28;20518;-63
2022/10/14 10:34:20;;;;;;;10.02;7.20;;;25.40;45.50;;;;;;4953301;28;20046;-61
2022/10/14 10:36:57;;;;;;;11.77;7.78;;;25.40;45.40;;;;;;4962278;28;20053;-61
2022/10/14 10:39:59;;;;;;;10.82;7.25;;;25.40;45.40;;;;;;4966099;28;20402;-60
2022/10/14 10:43:05;;;;;;;10.65;7.40;;;25.40;45.40;;;;;;4960634;28;20054;-60
2022/10/14 10:46:12;;;;;;;10.27;7.25;;;25.40;45.40;;;;;;4956144;28;20407;-61
2022/10/14 10:49:00;;;;;;;9.88;7.55;;;25.50;45.40;;;;;;4960788;28;20485;-60
2022/10/14 10:51:41;;;;;;;9.65;7.60;;;25.40;45.40;;;;;;4955131;28;20059;-61
2022/10/14 10:54:43;;;;;;;9.43;7.28;;;25.40;45.40;;;;;;4957377;28;20078;-61
2022/10/14 10:57:44;;;;;;;10.38;7.85;;;25.50;45.50;;;;;;4956433;28;20055;-61
2022/10/14 11:00:16;;;;;;;10.70;8.73;;;25.50;45.50;;;;;;4960878;28;20075;-61
2022/10/14 11:02:53;;;;;;;13.05;8.10;;;25.50;45.40;;;;;;4960174;28;20565;-60
2022/10/14 11:05:48;;;;;;;9.80;7.63;;;25.50;45.30;;;;;;4960277;28;20064;-60
2022/10/14 11:12:11;;;;;;;11.38;7.90;;;25.60;45.70;;;;;;4958277;28;20055;-61
2022/10/14 11:15:06;;;;;;;13.70;10.20;;;25.50;45.60;;;;;;4959219;28;20085;-60
2022/10/14 11:18:00;;;;;;;11.00;7.30;;;25.60;45.00;;;;;;4960805;28;20103;-61
2022/10/14 11:20:50;;;;;;;9.32;7.90;;;25.60;45.60;;;;;;4963196;28;20152;-62
2022/10/14 11:23:44;;;;;;;12.32;7.90;;;25.60;45.60;;;;;;4944366;28;20510;-61
2022/10/14 11:26:32;;;;;;;11.02;8.70;;;25.60;45.50;;;;;;4962834;28;20085;-61
2022/10/14 11:29:26;;;;;;;10.73;7.75;;;25.70;45.60;;;;;;4949938;28;20058;-60
2022/10/14 11:32:32;;;;;;;11.85;8.35;;;25.70;45.60;;;;;;4959695;28;20070;-61
2022/10/14 11:35:34;;;;;;;12.55;7.70;;;25.70;45.50;;;;;;4955670;28;20574;-62
2022/10/14 11:38:28;;;;;;;17.05;10.10;;;25.80;45.30;;;;;;4960219;28;20058;-62
2022/10/14 11:41:12;;;;;;;10.40;8.00;;;25.70;44.30;;;;;;4954100;28;20117;-62
2022/10/14 11:43:58;;;;;;;10.15;7.32;;;25.70;44.90;;;;;;4958678;28;20058;-60
2022/10/14 11:46:31;;;;;;;13.95;8.65;;;25.70;45.00;;;;;;4959498;28;20447;-62
2022/10/14 11:49:04;;;;;;;14.23;7.93;;;25.70;45.00;;;;;;4960223;28;20051;-61
2022/10/14 11:51:37;;;;;;;10.23;7.75;;;25.70;44.90;;;;;;4956715;28;20047;-62
2022/10/14 11:54:17;;;;;;;10.68;8.13;;;25.70;44.80;;;;;;4959529;28;20054;-60
2022/10/14 11:57:01;;;;;;;16.33;8.27;;;25.70;44.90;;;;;;4957151;28;20042;-61
2022/10/14 12:00:08;;;;;;;9.50;7.70;;;25.80;44.90;;;;;;4961566;28;20055;-62
2022/10/14 12:02:53;;;;;;;10.82;8.13;;;25.80;44.70;;;;;;4958338;28;20383;-61
2022/10/14 12:05:38;;;;;;;13.25;9.82;;;25.80;44.10;;;;;;4964360;28;20109;-62
2022/10/14 12:08:21;;;;;;;10.43;8.73;;;25.80;44.00;;;;;;4962682;28;20534;-61
2022/10/14 12:11:17;;;;;;;11.85;8.30;;;25.80;44.30;;;;;;4970153;28;20049;-61
2022/10/14 12:13:47;;;;;;;10.60;8.65;;;25.80;44.50;;;;;;4962132;28;20043;-62
2022/10/14 12:16:16;;;;;;;;;;;25.80;45.10;;;;;;4964226;28;20211;-61
2022/10/14 12:18:47;;;;;;;9.20;8.05;;;25.80;44.60;;;;;;4968240;28;19922;-61
2022/10/14 12:21:26;;;;;;;12.40;8.05;;;25.80;44.60;;;;;;4963586;28;20054;-63
2022/10/14 12:24:13;;;;;;;10.30;7.55;;;25.90;44.60;;;;;;4968950;28;20065;-60
2022/10/14 12:26:56;;;;;;;11.48;8.93;;;25.90;44.50;;;;;;4969152;28;20058;-61
2022/10/14 12:29:42;;;;;;;9.30;7.40;;;25.90;44.60;;;;;;4967030;28;20046;-63
2022/10/14 12:32:22;;;;;;;8.82;7.93;;;25.90;44.50;;;;;;4969715;28;20065;-63
2022/10/14 12:34:56;;;;;;;11.60;8.10;;;25.90;44.40;;;;;;4963355;28;20477;-62
2022/10/14 12:37:48;;;;;;;10.32;8.30;;;25.90;44.50;;;;;;4969229;28;20054;-62
2022/10/14 12:40:24;;;;;;;10.05;7.97;;;25.90;44.50;;;;;;4969962;28;20089;-61
2022/10/14 12:43:04;;;;;;;12.23;8.38;;;25.90;44.40;;;;;;4965748;28;20051;-62
2022/10/14 12:45:34;;;;;;;12.25;8.13;;;25.90;44.40;;;;;;4966924;28;20255;-62
2022/10/14 12:48:11;;;;;;;8.93;7.90;;;25.90;44.50;;;;;;4963797;28;20042;-61
2022/10/14 12:50:41;;;;;;;12.43;8.68;;;26.00;44.50;;;;;;4965593;28;20077;-61
2022/10/14 12:53:28;;;;;;;8.60;7.30;;;26.00;44.50;;;;;;4962949;28;20057;-62
2022/10/14 12:56:00;;;;;;;11.73;8.38;;;26.00;44.40;;;;;;4962550;28;20050;-62
2022/10/14 12:58:52;;;;;;;11.23;7.82;;;26.00;44.40;;;;;;4967142;28;20051;-63
2022/10/14 13:01:20;;;;;;;15.00;8.13;;;26.00;44.40;;;;;;4967241;28;20447;-63
2022/10/14 13:03:57;;;;;;;9.30;7.72;;;26.00;44.30;;;;;;4964520;28;20071;-62
2022/10/14 13:06:34;;;;;;;9.70;7.45;;;26.00;44.30;;;;;;4960754;28;20105;-62
2022/10/14 13:09:18;;;;;;;10.45;8.13;;;26.00;44.30;;;;;;4962069;28;20852;-63
2022/10/14 13:12:26;;;;;;;11.35;8.35;;;26.00;44.40;;;;;;4966837;28;20423;-62